createdAt,value
2018-07-25T00:01:04.879Z,10.38
2018-07-25T00:02:10.661Z,12.75
2018-07-25T00:03:16.751Z,12.73
2018-07-25T00:04:22.325Z,15.30
2018-07-25T00:05:29.657Z,13.65
2018-07-25T00:06:37.718Z,17.87
2018-07-25T00:07:43.089Z,11.10
2018-07-25T00:08:48.761Z,10.18
2018-07-25T00:09:54.208Z,17.23
2018-07-25T00:10:59.425Z,15.80
2018-07-25T00:12:04.414Z,16.20
2018-07-25T00:13:09.539Z,11.48
2018-07-25T00:14:14.711Z,10.48
2018-07-25T00:15:20.135Z,12.25
2018-07-25T00:16:26.462Z,11.08
2018-07-25T00:17:32.333Z,14.55
2018-07-25T00:18:37.632Z,13.03
2018-07-25T00:19:42.926Z,17.82
2018-07-25T00:20:49.159Z,18.25
2018-07-25T00:21:54.411Z,14.85
2018-07-25T00:23:01.397Z,12.68
2018-07-25T00:24:07.270Z,9.80
2018-07-25T00:25:13.498Z,9.28
2018-07-25T00:26:18.582Z,13.50
2018-07-25T00:27:23.798Z,12.73
2018-07-25T00:28:29.438Z,11.43
2018-07-25T00:29:34.371Z,11.25
2018-07-25T00:30:39.307Z,9.78
2018-07-25T00:31:44.271Z,11.80
2018-07-25T00:32:50.546Z,15.80
2018-07-25T00:33:57.206Z,14.00
2018-07-25T00:35:02.483Z,16.97
2018-07-25T00:36:09.762Z,15.23
2018-07-25T00:37:16.802Z,12.70
2018-07-25T00:38:22.190Z,17.70
2018-07-25T00:39:29.993Z,12.20
2018-07-25T00:40:35.609Z,14.70
2018-07-25T00:41:41.247Z,15.93
2018-07-25T00:42:46.612Z,12.10
2018-07-25T00:43:53.482Z,19.75
2018-07-25T00:44:59.027Z,17.10
2018-07-25T00:46:04.175Z,14.25
2018-07-25T00:47:43.494Z,11.25
2018-07-25T00:48:48.790Z,10.90
2018-07-25T00:49:54.407Z,15.43
2018-07-25T00:50:59.664Z,14.58
2018-07-25T00:52:04.960Z,12.23
2018-07-25T00:53:10.154Z,16.75
2018-07-25T00:54:15.283Z,16.80
2018-07-25T00:55:21.199Z,12.37
2018-07-25T00:56:26.206Z,13.40
2018-07-25T00:57:31.815Z,12.90
2018-07-25T00:58:37.154Z,16.17
2018-07-25T00:59:42.237Z,9.78
2018-07-25T01:00:47.717Z,12.60
2018-07-25T01:01:53.078Z,20.60
2018-07-25T01:03:01.217Z,14.00
2018-07-25T01:04:12.424Z,10.40
2018-07-25T01:05:17.774Z,12.90
2018-07-25T01:06:22.655Z,9.43
2018-07-25T01:07:27.928Z,13.30
2018-07-25T01:08:33.237Z,15.25
2018-07-25T01:09:38.422Z,13.25
2018-07-25T01:10:43.817Z,17.77
2018-07-25T01:11:48.603Z,14.15
2018-07-25T01:12:53.479Z,11.93
2018-07-25T01:13:58.156Z,10.78
2018-07-25T01:15:03.221Z,11.43
2018-07-25T01:16:08.467Z,12.03
2018-07-25T01:17:13.249Z,14.07
2018-07-25T01:18:18.320Z,17.85
2018-07-25T01:19:23.029Z,17.37
2018-07-25T01:20:28.790Z,13.05
2018-07-25T01:21:33.392Z,14.20
2018-07-25T01:22:38.242Z,17.00
2018-07-25T01:23:43.053Z,14.87
2018-07-25T01:24:48.054Z,11.30
2018-07-25T01:26:02.734Z,27.70
2018-07-25T01:27:07.882Z,16.85
2018-07-25T01:28:12.412Z,13.08
2018-07-25T01:29:17.548Z,13.13
2018-07-25T01:30:22.684Z,18.45
2018-07-25T01:31:27.617Z,15.18
2018-07-25T01:32:32.451Z,15.32
2018-07-25T01:33:36.879Z,15.03
2018-07-25T01:34:41.434Z,12.37
2018-07-25T01:35:46.202Z,20.37
2018-07-25T01:36:55.116Z,14.23
2018-07-25T01:38:01.246Z,17.67
2018-07-25T01:39:11.280Z,20.12
2018-07-25T01:40:16.207Z,15.10
2018-07-25T01:41:20.979Z,13.28
2018-07-25T01:42:25.646Z,14.25
2018-07-25T01:43:30.222Z,16.97
2018-07-25T01:44:35.460Z,15.32
2018-07-25T01:45:39.979Z,15.90
2018-07-25T01:46:44.693Z,19.57
2018-07-25T01:47:49.641Z,14.33
2018-07-25T01:48:54.357Z,12.47
2018-07-25T01:49:59.136Z,15.72
2018-07-25T01:51:04.031Z,17.30
2018-07-25T01:52:08.928Z,11.48
2018-07-25T01:53:13.597Z,16.07
2018-07-25T01:54:18.384Z,11.45
2018-07-25T01:55:23.877Z,13.90
2018-07-25T01:56:28.408Z,23.95
2018-07-25T01:57:33.121Z,15.60
2018-07-25T01:58:37.940Z,17.12
2018-07-25T01:59:42.757Z,19.65
2018-07-25T02:00:48.778Z,13.98
2018-07-25T02:01:53.737Z,16.10
2018-07-25T02:02:58.813Z,16.93
2018-07-25T02:04:03.837Z,22.10
2018-07-25T02:05:09.217Z,14.63
2018-07-25T02:06:13.776Z,17.55
2018-07-25T02:07:18.651Z,28.15
2018-07-25T02:08:23.599Z,15.58
2018-07-25T02:09:28.022Z,18.32
2018-07-25T02:10:38.736Z,20.65
2018-07-25T02:11:43.326Z,18.23
2018-07-25T02:12:48.056Z,21.25
2018-07-25T02:13:53.107Z,12.93
2018-07-25T02:14:58.533Z,15.70
2018-07-25T02:16:03.165Z,18.57
2018-07-25T02:17:07.674Z,21.20
2018-07-25T02:18:12.507Z,20.45
2018-07-25T02:19:17.122Z,18.35
2018-07-25T02:20:22.178Z,16.77
2018-07-25T02:21:26.809Z,15.13
2018-07-25T02:22:31.774Z,15.20
2018-07-25T02:23:36.781Z,18.85
2018-07-25T02:24:41.717Z,19.02
2018-07-25T02:25:46.670Z,15.45
2018-07-25T02:26:51.548Z,16.55
2018-07-25T02:27:56.028Z,27.73
2018-07-25T02:29:00.797Z,17.55
2018-07-25T02:30:05.913Z,19.23
2018-07-25T02:31:11.575Z,15.83
2018-07-25T02:32:16.735Z,17.55
2018-07-25T02:33:25.552Z,17.12
2018-07-25T02:34:30.515Z,27.98
2018-07-25T02:35:35.253Z,20.35
2018-07-25T02:36:40.010Z,17.40
2018-07-25T02:37:44.557Z,20.37
2018-07-25T02:38:49.518Z,18.12
2018-07-25T02:39:54.502Z,18.02
2018-07-25T02:40:59.244Z,14.87
2018-07-25T02:42:03.954Z,19.00
2018-07-25T02:43:08.928Z,21.02
2018-07-25T02:44:14.620Z,17.60
2018-07-25T02:45:19.481Z,14.53
2018-07-25T02:46:24.246Z,18.52
2018-07-25T02:47:28.990Z,15.30
2018-07-25T02:48:33.187Z,27.02
2018-07-25T02:49:37.985Z,15.78
2018-07-25T02:50:43.085Z,16.30
2018-07-25T02:51:48.026Z,14.65
2018-07-25T02:52:52.799Z,15.38
2018-07-25T02:53:57.621Z,14.58
2018-07-25T02:55:02.136Z,15.25
2018-07-25T02:56:07.105Z,17.40
2018-07-25T02:57:11.801Z,16.25
2018-07-25T02:58:16.961Z,18.80
2018-07-25T02:59:21.941Z,16.67
2018-07-25T03:00:26.414Z,22.98
2018-07-25T03:01:31.613Z,16.57
2018-07-25T03:02:36.681Z,17.35
2018-07-25T03:03:41.702Z,15.45
2018-07-25T03:04:46.571Z,15.45
2018-07-25T03:05:51.258Z,16.00
2018-07-25T03:06:55.931Z,17.20
2018-07-25T03:08:00.428Z,14.05
2018-07-25T03:09:06.688Z,15.95
2018-07-25T03:10:11.722Z,17.05
2018-07-25T03:11:16.752Z,18.05
2018-07-25T03:12:21.630Z,14.78
2018-07-25T03:13:26.681Z,16.32
2018-07-25T03:14:31.383Z,17.60
2018-07-25T03:15:36.122Z,11.90
2018-07-25T03:16:40.986Z,14.50
2018-07-25T03:17:46.174Z,15.45
2018-07-25T03:18:50.885Z,19.70
2018-07-25T03:19:55.767Z,18.73
2018-07-25T03:21:01.146Z,12.70
2018-07-25T03:22:05.849Z,18.45
2018-07-25T03:23:10.552Z,14.60
2018-07-25T03:24:15.377Z,18.17
2018-07-25T03:25:20.254Z,17.48
2018-07-25T03:26:25.166Z,14.30
2018-07-25T03:27:29.706Z,15.08
2018-07-25T03:28:34.287Z,11.80
2018-07-25T03:29:39.418Z,24.07
2018-07-25T03:30:44.582Z,20.92
2018-07-25T03:31:49.565Z,24.35
2018-07-25T03:32:54.304Z,12.50
2018-07-25T03:33:58.985Z,14.43
2018-07-25T03:35:04.060Z,13.98
2018-07-25T03:36:09.068Z,15.13
2018-07-25T03:37:14.387Z,17.02
2018-07-25T03:38:19.454Z,21.45
2018-07-25T03:39:24.269Z,13.68
2018-07-25T03:40:29.085Z,14.95
2018-07-25T03:41:33.993Z,14.30
2018-07-25T03:42:38.784Z,17.73
2018-07-25T03:43:43.180Z,19.48
2018-07-25T03:44:47.904Z,16.62
2018-07-25T03:45:52.696Z,14.60
2018-07-25T03:46:57.220Z,18.62
2018-07-25T03:48:02.056Z,16.40
2018-07-25T03:49:07.018Z,16.42
2018-07-25T03:50:11.977Z,15.40
2018-07-25T03:51:16.899Z,20.62
2018-07-25T03:52:21.452Z,15.63
2018-07-25T03:53:25.936Z,16.97
2018-07-25T03:54:32.325Z,16.75
2018-07-25T03:55:37.139Z,21.95
2018-07-25T03:56:41.865Z,16.17
2018-07-25T03:57:46.845Z,19.05
2018-07-25T03:58:53.169Z,15.40
2018-07-25T03:59:58.033Z,18.17
2018-07-25T04:01:03.093Z,18.07
2018-07-25T04:02:08.116Z,18.23
2018-07-25T04:03:12.696Z,13.60
2018-07-25T04:04:17.563Z,14.73
2018-07-25T04:05:22.276Z,16.97
2018-07-25T04:06:26.740Z,16.70
2018-07-25T04:07:32.145Z,19.62
2018-07-25T04:08:37.083Z,13.90
2018-07-25T04:09:41.895Z,15.50
2018-07-25T04:10:49.135Z,19.70
2018-07-25T04:11:54.049Z,15.38
2018-07-25T04:12:58.641Z,19.62
2018-07-25T04:14:03.545Z,18.80
2018-07-25T04:15:08.617Z,14.80
2018-07-25T04:16:13.397Z,24.27
2018-07-25T04:17:18.272Z,14.43
2018-07-25T04:18:23.599Z,16.23
2018-07-25T04:19:29.816Z,15.05
2018-07-25T04:20:34.694Z,17.80
2018-07-25T04:21:39.339Z,15.55
2018-07-25T04:22:43.939Z,21.80
2018-07-25T04:23:49.377Z,15.15
2018-07-25T04:24:55.051Z,18.42
2018-07-25T04:25:59.609Z,18.35
2018-07-25T04:27:04.258Z,17.90
2018-07-25T04:28:09.333Z,14.58
2018-07-25T04:29:14.158Z,14.53
2018-07-25T04:30:20.277Z,22.77
2018-07-25T04:31:26.399Z,21.65
2018-07-25T04:32:31.806Z,16.90
2018-07-25T04:33:36.597Z,14.87
2018-07-25T04:34:41.446Z,22.17
2018-07-25T04:35:46.036Z,20.23
2018-07-25T04:36:51.069Z,18.40
2018-07-25T04:37:56.123Z,17.37
2018-07-25T04:39:01.062Z,17.50
2018-07-25T04:40:05.908Z,25.12
2018-07-25T04:41:10.690Z,28.75
2018-07-25T04:42:15.360Z,19.30
2018-07-25T04:43:20.485Z,16.70
2018-07-25T04:44:27.923Z,22.32
2018-07-25T04:45:32.374Z,21.37
2018-07-25T04:46:37.546Z,19.55
2018-07-25T04:47:42.276Z,18.17
2018-07-25T04:48:47.401Z,22.58
2018-07-25T04:49:52.193Z,18.40
2018-07-25T04:50:57.039Z,20.25
2018-07-25T04:52:01.466Z,26.77
2018-07-25T04:53:07.650Z,18.15
2018-07-25T04:54:12.307Z,23.18
2018-07-25T04:55:17.345Z,17.57
2018-07-25T04:56:22.129Z,18.30
2018-07-25T04:57:26.601Z,19.07
2018-07-25T04:58:31.432Z,23.22
2018-07-25T04:59:35.907Z,18.52
2018-07-25T05:00:40.329Z,18.25
2018-07-25T05:01:44.853Z,18.60
2018-07-25T05:02:49.427Z,16.82
2018-07-25T05:03:55.104Z,29.35
2018-07-25T05:04:59.981Z,19.35
2018-07-25T05:06:04.717Z,21.45
2018-07-25T05:07:09.500Z,19.40
2018-07-25T05:08:14.063Z,23.15
2018-07-25T05:09:18.580Z,25.90
2018-07-25T05:10:23.727Z,22.62
2018-07-25T05:11:29.590Z,19.02
2018-07-25T05:12:34.410Z,20.45
2018-07-25T05:13:40.201Z,22.10
2018-07-25T05:14:44.692Z,22.93
2018-07-25T05:15:49.421Z,26.07
2018-07-25T05:16:54.407Z,17.85
2018-07-25T05:17:59.200Z,19.37
2018-07-25T05:19:04.150Z,20.77
2018-07-25T05:20:08.651Z,20.60
2018-07-25T05:21:13.096Z,26.35
2018-07-25T05:22:17.577Z,19.95
2018-07-25T05:23:22.125Z,22.58
2018-07-25T05:24:27.168Z,20.45
2018-07-25T05:25:32.521Z,34.23
2018-07-25T05:26:37.251Z,29.75
2018-07-25T05:27:41.476Z,19.05
2018-07-25T05:28:46.266Z,31.07
2018-07-25T05:29:51.013Z,21.75
2018-07-25T05:30:55.548Z,19.25
2018-07-25T05:32:00.157Z,21.77
2018-07-25T05:33:05.442Z,24.70
2018-07-25T05:34:10.184Z,23.18
2018-07-25T05:35:16.087Z,22.62
2018-07-25T05:36:21.019Z,22.77
2018-07-25T05:37:25.544Z,21.95
2018-07-25T05:38:30.038Z,20.60
2018-07-25T05:39:34.549Z,17.80
2018-07-25T05:40:39.082Z,23.35
2018-07-25T05:41:44.205Z,21.97
2018-07-25T05:42:48.934Z,21.40
2018-07-25T05:43:53.968Z,26.07
2018-07-25T05:44:58.461Z,23.40
2018-07-25T05:46:03.203Z,33.50
2018-07-25T05:47:07.750Z,33.88
2018-07-25T05:48:13.076Z,26.93
2018-07-25T05:49:17.802Z,29.32
2018-07-25T05:50:22.377Z,21.77
2018-07-25T05:51:26.816Z,22.48
2018-07-25T05:52:31.312Z,28.30
2018-07-25T05:53:36.876Z,27.55
2018-07-25T05:54:41.424Z,25.95
2018-07-25T05:55:46.020Z,20.02
2018-07-25T05:56:50.604Z,25.32
2018-07-25T05:57:56.211Z,21.33
2018-07-25T05:59:05.760Z,23.92
2018-07-25T06:00:10.564Z,20.27
2018-07-25T06:01:15.068Z,22.25
2018-07-25T06:02:19.961Z,25.50
2018-07-25T06:03:25.300Z,27.55
2018-07-25T06:04:35.517Z,23.52
2018-07-25T06:05:40.007Z,24.02
2018-07-25T06:06:45.654Z,23.10
2018-07-25T06:07:50.175Z,28.73
2018-07-25T06:08:55.773Z,30.55
2018-07-25T06:10:00.614Z,26.20
2018-07-25T06:11:05.613Z,20.00
2018-07-25T06:12:10.759Z,21.75
2018-07-25T06:13:15.335Z,21.02
2018-07-25T06:14:19.936Z,20.65
2018-07-25T06:15:24.692Z,23.22
2018-07-25T06:16:31.114Z,21.97
2018-07-25T06:17:35.996Z,25.05
2018-07-25T06:18:40.600Z,21.57
2018-07-25T06:19:45.163Z,31.42
2018-07-25T06:21:06.778Z,21.75
2018-07-25T06:22:11.813Z,28.98
2018-07-25T06:23:16.637Z,20.80
2018-07-25T06:24:21.238Z,33.65
2018-07-25T06:25:25.921Z,22.90
2018-07-25T06:26:30.456Z,26.33
2018-07-25T06:27:35.096Z,25.77
2018-07-25T06:28:39.814Z,25.52
2018-07-25T06:29:44.521Z,23.98
2018-07-25T06:30:49.181Z,26.20
2018-07-25T06:31:54.372Z,27.90
2018-07-25T06:32:59.205Z,22.05
2018-07-25T06:34:04.773Z,23.57
2018-07-25T06:35:10.237Z,28.20
2018-07-25T06:36:14.780Z,19.85
2018-07-25T06:37:19.273Z,26.77
2018-07-25T06:38:24.997Z,22.52
2018-07-25T06:39:29.544Z,28.00
2018-07-25T06:40:34.226Z,25.02
2018-07-25T06:41:39.072Z,27.55
2018-07-25T06:42:43.597Z,30.68
2018-07-25T06:43:48.308Z,32.88
2018-07-25T06:44:53.163Z,24.47
2018-07-25T06:45:58.664Z,25.27
2018-07-25T06:47:04.085Z,22.87
2018-07-25T06:48:09.922Z,27.90
2018-07-25T06:49:15.236Z,27.93
2018-07-25T06:50:19.815Z,24.43
2018-07-25T06:51:24.640Z,24.72
2018-07-25T06:52:29.584Z,20.88
2018-07-25T06:53:34.513Z,21.55
2018-07-25T06:54:39.037Z,31.17
2018-07-25T06:55:43.892Z,32.95
2018-07-25T06:56:48.382Z,30.62
2018-07-25T06:57:53.314Z,27.42
2018-07-25T06:58:58.185Z,24.87
2018-07-25T07:00:02.938Z,27.15
2018-07-25T07:01:19.491Z,33.18
2018-07-25T07:02:32.474Z,25.80
2018-07-25T07:03:47.811Z,27.37
2018-07-25T07:04:56.521Z,29.72
2018-07-25T07:06:02.720Z,32.03
2018-07-25T07:07:12.376Z,32.33
2018-07-25T07:08:27.495Z,35.55
2018-07-25T07:09:34.185Z,24.45
2018-07-25T07:10:44.741Z,34.48
2018-07-25T07:11:51.601Z,27.15
2018-07-25T07:13:02.368Z,33.65
2018-07-25T07:14:07.732Z,27.75
2018-07-25T07:15:19.289Z,37.78
2018-07-25T07:16:37.487Z,37.05
2018-07-25T07:17:43.672Z,30.92
2018-07-25T07:18:51.141Z,30.27
2018-07-25T07:19:58.227Z,33.30
2018-07-25T07:23:16.217Z,35.60
2018-07-25T07:24:23.512Z,30.80
2018-07-25T07:25:28.154Z,33.05
2018-07-25T07:26:32.943Z,36.08
2018-07-25T07:27:38.815Z,25.48
2018-07-25T07:28:44.194Z,35.08
2018-07-25T07:29:53.784Z,24.60
2018-07-25T07:31:01.527Z,30.23
2018-07-25T07:32:06.393Z,30.77
2018-07-25T07:33:14.437Z,26.68
2018-07-25T07:34:22.081Z,29.25
2018-07-25T07:35:27.388Z,34.73
2018-07-25T07:36:33.002Z,35.63
2018-07-25T07:37:42.180Z,32.93
2018-07-25T07:38:47.641Z,31.70
2018-07-25T07:39:54.041Z,33.38
2018-07-25T07:40:59.104Z,37.58
2018-07-25T07:42:03.804Z,36.17
2018-07-25T07:43:09.077Z,29.40
2018-07-25T07:44:15.984Z,28.87
2018-07-25T07:45:22.336Z,27.95
2018-07-25T07:46:28.474Z,29.00
2018-07-25T07:47:33.251Z,37.03
2018-07-25T07:48:38.481Z,33.00
2018-07-25T07:49:45.500Z,34.45
2018-07-25T07:50:52.734Z,27.10
2018-07-25T07:52:08.683Z,30.50
2018-07-25T07:56:30.823Z,34.90
2018-07-25T07:58:06.784Z,31.90
2018-07-25T07:59:11.480Z,26.40
2018-07-25T08:00:19.862Z,55.63
2018-07-25T08:01:31.182Z,42.95
2018-07-25T08:02:36.087Z,29.25
2018-07-25T08:03:41.608Z,38.05
2018-07-25T08:06:22.405Z,26.62
2018-07-25T08:07:26.986Z,27.25
2018-07-25T08:08:33.008Z,32.38
2018-07-25T08:09:39.053Z,30.80
2018-07-25T08:10:44.245Z,37.10
2018-07-25T08:11:50.677Z,34.13
2018-07-25T08:13:01.193Z,41.58
2018-07-25T08:14:06.328Z,36.03
2018-07-25T08:15:11.244Z,37.08
2018-07-25T08:16:16.194Z,38.30
2018-07-25T08:17:20.788Z,35.33
2018-07-25T08:18:26.824Z,27.20
2018-07-25T08:19:31.464Z,42.65
2018-07-25T08:20:36.174Z,31.33
2018-07-25T08:21:50.720Z,30.35
2018-07-25T08:22:55.633Z,29.87
2018-07-25T08:24:00.653Z,31.85
2018-07-25T08:25:08.484Z,35.48
2018-07-25T08:26:14.488Z,24.92
2018-07-25T08:27:19.997Z,25.92
2018-07-25T08:28:24.489Z,26.05
2018-07-25T08:29:29.399Z,31.55
2018-07-25T08:30:34.686Z,26.68
2018-07-25T08:31:39.781Z,25.48
2018-07-25T08:32:46.963Z,24.02
2018-07-25T08:33:51.635Z,26.17
2018-07-25T08:34:56.321Z,32.85
2018-07-25T08:36:03.536Z,31.35
2018-07-25T08:37:09.633Z,27.67
2018-07-25T08:38:15.666Z,27.95
2018-07-25T08:39:20.561Z,28.57
2018-07-25T08:40:25.183Z,26.00
2018-07-25T08:41:29.788Z,22.67
2018-07-25T08:42:35.210Z,30.37
2018-07-25T08:43:43.600Z,32.95
2018-07-25T08:44:48.759Z,25.48
2018-07-25T08:45:55.163Z,28.90
2018-07-25T08:47:00.440Z,28.85
2018-07-25T08:48:06.667Z,25.32
2018-07-25T08:49:11.267Z,28.83
2018-07-25T08:50:15.843Z,29.70
2018-07-25T08:51:20.383Z,34.65
2018-07-25T08:52:24.883Z,29.10
2018-07-25T08:53:29.464Z,25.92
2018-07-25T08:54:34.483Z,28.07
2018-07-25T08:55:40.547Z,33.75
2018-07-25T08:56:50.636Z,32.70
2018-07-25T08:57:55.568Z,28.77
2018-07-25T08:59:00.454Z,45.10
2018-07-25T09:00:06.694Z,31.57
2018-07-25T09:01:11.817Z,31.12
2018-07-25T09:02:16.478Z,32.67
2018-07-25T09:03:21.957Z,28.20
2018-07-25T09:04:26.444Z,33.25
2018-07-25T09:05:31.773Z,34.18
2018-07-25T09:06:36.261Z,29.72
2018-07-25T09:07:40.933Z,25.70
2018-07-25T09:08:45.648Z,24.98
2018-07-25T09:09:50.356Z,27.02
2018-07-25T09:10:55.161Z,40.05
2018-07-25T09:11:59.756Z,26.40
2018-07-25T09:13:04.630Z,26.52
2018-07-25T09:14:09.178Z,26.62
2018-07-25T09:15:13.742Z,23.25
2018-07-25T09:16:18.565Z,31.82
2018-07-25T09:17:24.809Z,31.12
2018-07-25T09:18:31.113Z,30.08
2018-07-25T09:19:35.843Z,60.85
2018-07-25T09:20:40.761Z,32.45
2018-07-25T09:21:45.798Z,32.23
2018-07-25T09:22:50.298Z,36.17
2018-07-25T09:23:54.773Z,27.58
2018-07-25T09:24:59.652Z,33.78
2018-07-25T09:26:06.322Z,31.17
2018-07-25T09:27:14.742Z,32.53
2018-07-25T09:28:19.279Z,32.88
2018-07-25T09:29:23.805Z,32.03
2018-07-25T09:30:29.306Z,31.97
2018-07-25T09:31:34.408Z,37.58
2018-07-25T09:32:39.716Z,32.78
2018-07-25T09:33:44.469Z,39.53
2018-07-25T09:34:49.289Z,30.52
2018-07-25T09:35:53.834Z,33.55
2018-07-25T09:36:59.384Z,33.02
2018-07-25T09:38:05.426Z,29.75
2018-07-25T09:39:11.794Z,31.07
2018-07-25T09:40:17.184Z,31.00
2018-07-25T09:41:22.399Z,30.25
2018-07-25T09:42:28.800Z,25.88
2018-07-25T09:43:36.431Z,27.30
2018-07-25T09:44:40.930Z,33.40
2018-07-25T09:45:45.495Z,35.55
2018-07-25T09:46:50.252Z,34.73
2018-07-25T09:47:55.805Z,30.23
2018-07-25T09:49:02.109Z,27.87
2018-07-25T09:50:07.780Z,37.20
2018-07-25T09:51:13.569Z,31.60
2018-07-25T09:52:18.814Z,30.15
2018-07-25T09:53:23.460Z,35.55
2018-07-25T09:54:29.166Z,37.93
2018-07-25T09:55:33.817Z,38.17
2018-07-25T09:56:38.645Z,33.53
2018-07-25T09:57:43.692Z,24.25
2018-07-25T09:58:49.080Z,25.75
2018-07-25T09:59:53.654Z,25.40
2018-07-25T10:00:59.117Z,23.87
2018-07-25T10:02:03.704Z,23.07
2018-07-25T10:03:09.886Z,24.52
2018-07-25T10:04:16.642Z,26.57
2018-07-25T10:05:22.821Z,21.50
2018-07-25T10:06:27.469Z,25.40
2018-07-25T10:07:32.467Z,19.73
2018-07-25T10:08:37.080Z,27.80
2018-07-25T10:09:41.822Z,30.05
2018-07-25T10:10:46.973Z,19.45
2018-07-25T10:11:51.707Z,23.90
2018-07-25T10:12:57.517Z,26.02
2018-07-25T10:14:10.124Z,26.73
2018-07-25T10:15:19.005Z,22.62
2018-07-25T10:16:24.160Z,21.68
2018-07-25T10:17:29.009Z,17.98
2018-07-25T10:18:34.533Z,16.32
2018-07-25T10:19:39.200Z,17.85
2018-07-25T10:20:44.117Z,23.52
2018-07-25T10:21:52.497Z,25.88
2018-07-25T10:22:58.421Z,19.60
2018-07-25T10:24:03.147Z,15.63
2018-07-25T10:25:08.803Z,20.57
2018-07-25T10:26:14.226Z,23.52
2018-07-25T10:27:19.238Z,20.48
2018-07-25T10:28:26.810Z,22.80
2018-07-25T10:29:33.054Z,22.60
2018-07-25T10:30:39.300Z,18.05
2018-07-25T10:31:44.916Z,23.98
2018-07-25T10:32:52.154Z,21.75
2018-07-25T10:34:00.726Z,36.77
2018-07-25T10:35:06.460Z,17.48
2018-07-25T10:36:12.805Z,16.67
2018-07-25T10:37:22.419Z,17.55
2018-07-25T10:38:30.943Z,14.98
2018-07-25T10:39:36.295Z,12.43
2018-07-25T10:40:44.445Z,13.62
2018-07-25T10:41:49.300Z,13.62
2018-07-25T10:42:54.318Z,13.40
2018-07-25T10:43:59.344Z,12.75
2018-07-25T10:45:04.305Z,15.35
2018-07-25T10:46:10.150Z,17.82
2018-07-25T10:47:20.089Z,21.05
2018-07-25T10:48:26.807Z,24.35
2018-07-25T10:49:31.336Z,36.15
2018-07-25T10:50:36.625Z,65.67
2018-07-25T10:51:41.457Z,64.92
2018-07-25T10:52:46.298Z,45.00
2018-07-25T10:53:51.562Z,26.52
2018-07-25T10:54:56.588Z,27.98
2018-07-25T10:56:01.473Z,46.13
2018-07-25T10:57:06.103Z,25.88
2018-07-25T10:58:12.634Z,16.52
2018-07-25T10:59:18.321Z,11.30
2018-07-25T11:00:27.237Z,11.28
2018-07-25T11:01:32.396Z,10.20
2018-07-25T11:02:38.108Z,9.98
2018-07-25T11:03:45.618Z,18.77
2018-07-25T11:04:50.460Z,17.32
2018-07-25T11:05:58.851Z,10.65
2018-07-25T11:07:21.572Z,15.63
2018-07-25T11:08:28.451Z,15.72
2018-07-25T11:09:34.675Z,8.65
2018-07-25T11:10:40.925Z,18.67
2018-07-25T11:11:49.321Z,10.40
2018-07-25T11:12:54.737Z,13.85
2018-07-25T11:14:04.287Z,13.60
2018-07-25T11:15:13.441Z,24.25
2018-07-25T11:16:22.475Z,11.43
2018-07-25T11:17:29.711Z,10.85
2018-07-25T11:18:43.392Z,9.73
2018-07-25T11:19:49.141Z,13.18
2018-07-25T11:20:53.961Z,11.73
2018-07-25T11:21:59.862Z,8.48
2018-07-25T11:24:08.377Z,12.80
2018-07-25T11:25:13.196Z,10.10
2018-07-25T11:26:18.212Z,6.92
2018-07-25T11:27:25.103Z,9.05
2018-07-25T11:28:32.693Z,6.53
2018-07-25T11:29:37.239Z,9.90
2018-07-25T11:30:45.032Z,10.80
2018-07-25T11:31:52.326Z,15.43
2018-07-25T11:32:58.032Z,7.47
2018-07-25T11:34:11.554Z,8.03
2018-07-25T11:35:16.648Z,9.20
2018-07-25T11:36:24.834Z,8.90
2018-07-25T11:37:32.895Z,8.23
2018-07-25T11:38:46.251Z,12.60
2018-07-25T11:39:53.127Z,12.00
2018-07-25T11:41:14.788Z,8.70
2018-07-25T11:42:23.595Z,11.77
2018-07-25T11:43:29.623Z,10.63
2018-07-25T11:44:34.397Z,7.10
2018-07-25T11:45:42.469Z,5.70
2018-07-25T11:46:59.680Z,7.67
2018-07-25T11:48:05.851Z,9.63
2018-07-25T11:49:13.282Z,7.97
2018-07-25T11:50:24.405Z,6.67
2018-07-25T11:51:35.834Z,7.40
2018-07-25T11:52:44.403Z,8.47
2018-07-25T11:54:03.693Z,8.67
2018-07-25T11:59:21.451Z,6.20
2018-07-25T12:00:26.638Z,7.50
2018-07-25T12:01:34.107Z,7.73
2018-07-25T12:02:39.387Z,9.30
2018-07-25T12:03:44.213Z,7.23
2018-07-25T12:04:49.517Z,6.13
2018-07-25T12:05:54.445Z,9.47
2018-07-25T12:08:05.248Z,7.70
2018-07-25T12:09:13.057Z,21.30
2018-07-25T12:10:17.836Z,16.13
2018-07-25T12:11:25.630Z,10.53
2018-07-25T12:12:32.193Z,9.70
2018-07-25T12:13:40.085Z,11.37
2018-07-25T12:14:44.843Z,6.60
2018-07-25T12:15:51.691Z,6.10
2018-07-25T12:16:56.883Z,7.70
2018-07-25T12:19:02.416Z,9.90
2018-07-25T12:20:11.797Z,10.45
2018-07-25T12:21:17.227Z,12.65
2018-07-25T12:22:22.101Z,9.73
2018-07-25T12:23:27.774Z,10.05
2018-07-25T12:24:33.448Z,9.33
2018-07-25T12:25:38.300Z,20.43
2018-07-25T12:26:43.744Z,15.68
2018-07-25T12:27:50.359Z,7.90
2018-07-25T12:28:54.972Z,12.98
2018-07-25T12:30:00.801Z,12.47
2018-07-25T12:31:20.971Z,7.40
2018-07-25T12:33:05.867Z,8.28
2018-07-25T12:34:10.760Z,10.75
2018-07-25T12:35:26.221Z,10.28
2018-07-25T12:36:30.755Z,9.20
2018-07-25T12:37:35.600Z,10.32
2018-07-25T12:38:40.657Z,13.45
2018-07-25T12:39:45.720Z,10.40
2018-07-25T12:40:50.263Z,9.18
2018-07-25T12:41:56.375Z,21.50
2018-07-25T12:43:01.209Z,14.40
2018-07-25T12:44:06.047Z,10.82
2018-07-25T12:45:11.663Z,10.93
2018-07-25T12:46:18.486Z,13.58
2018-07-25T12:47:23.150Z,11.70
2018-07-25T12:48:31.641Z,9.10
2018-07-25T12:49:37.317Z,10.53
2018-07-25T12:50:41.895Z,10.40
2018-07-25T12:51:50.974Z,9.30
2018-07-25T12:52:55.777Z,7.78
2018-07-25T12:54:01.259Z,17.25
2018-07-25T12:55:05.778Z,11.28
2018-07-25T12:56:10.830Z,11.65
2018-07-25T12:57:15.482Z,11.10
2018-07-25T13:00:26.220Z,9.60
2018-07-25T13:01:33.190Z,8.83
2018-07-25T13:03:15.920Z,12.95
2018-07-25T13:04:25.843Z,11.78
2018-07-25T13:07:00.272Z,12.73
2018-07-25T13:08:27.747Z,11.90
2018-07-25T13:09:37.968Z,9.70
2018-07-25T13:10:43.637Z,12.65
2018-07-25T13:11:49.249Z,13.72
2018-07-25T13:12:58.784Z,16.95
2018-07-25T13:14:04.715Z,19.52
2018-07-25T13:15:10.777Z,13.13
2018-07-25T13:16:18.554Z,13.53
2018-07-25T13:17:31.461Z,8.55
2018-07-25T13:18:36.065Z,10.45
2018-07-25T13:19:41.047Z,10.40
2018-07-25T13:20:56.739Z,17.57
2018-07-25T13:22:01.456Z,9.75
2018-07-25T13:23:06.565Z,10.72
2018-07-25T13:24:12.230Z,10.53
2018-07-25T13:25:17.417Z,11.00
2018-07-25T13:26:22.788Z,15.83
2018-07-25T13:27:27.416Z,11.28
2018-07-25T13:28:33.802Z,9.90
2018-07-25T13:29:38.391Z,13.68
2018-07-25T13:30:43.167Z,12.95
2018-07-25T13:31:48.005Z,11.28
2018-07-25T13:32:53.962Z,10.38
2018-07-25T13:33:59.058Z,16.15
2018-07-25T13:35:03.683Z,16.23
2018-07-25T13:36:09.398Z,13.80
2018-07-25T13:37:14.376Z,14.65
2018-07-25T13:38:20.125Z,15.88
2018-07-25T13:39:30.990Z,13.43
2018-07-25T13:40:39.671Z,13.55
2018-07-25T13:41:44.137Z,11.33
2018-07-25T13:42:49.425Z,8.85
2018-07-25T13:43:54.405Z,14.73
2018-07-25T13:45:01.218Z,9.98
2018-07-25T13:46:10.971Z,9.65
2018-07-25T13:47:16.250Z,7.92
2018-07-25T13:48:22.506Z,14.78
2018-07-25T13:49:28.077Z,11.48
2018-07-25T13:50:33.326Z,11.15
2018-07-25T13:51:38.288Z,12.58
2018-07-25T13:52:44.606Z,9.83
2018-07-25T13:53:49.338Z,10.20
2018-07-25T13:54:54.892Z,11.00
2018-07-25T13:56:01.991Z,8.38
2018-07-25T13:57:06.711Z,10.35
2018-07-25T13:58:11.707Z,8.50
2018-07-25T13:59:17.551Z,12.13
2018-07-25T14:00:22.295Z,8.53
2018-07-25T14:01:28.213Z,12.80
2018-07-25T14:02:32.939Z,12.23
2018-07-25T14:03:40.832Z,9.25
2018-07-25T14:04:50.537Z,7.62
2018-07-25T14:05:57.552Z,11.43
2018-07-25T14:07:03.037Z,11.53
2018-07-25T14:08:08.248Z,16.40
2018-07-25T14:09:13.269Z,9.65
2018-07-25T14:10:18.001Z,9.05
2018-07-25T14:11:23.671Z,12.10
2018-07-25T14:12:29.440Z,11.70
2018-07-25T14:13:34.105Z,8.60
2018-07-25T14:14:38.783Z,13.72
2018-07-25T14:15:45.334Z,11.90
2018-07-25T14:16:51.234Z,8.03
2018-07-25T14:17:55.861Z,11.93
2018-07-25T14:19:00.744Z,7.95
2018-07-25T14:20:05.440Z,10.23
2018-07-25T14:21:10.147Z,8.80
2018-07-25T14:22:14.871Z,8.58
2018-07-25T14:23:19.491Z,7.53
2018-07-25T14:24:24.495Z,9.03
2018-07-25T14:25:30.065Z,6.97
2018-07-25T14:26:35.299Z,9.13
2018-07-25T14:27:40.588Z,7.90
2018-07-25T14:28:45.526Z,9.10
2018-07-25T14:29:50.347Z,10.45
2018-07-25T14:30:55.213Z,8.53
2018-07-25T14:32:00.343Z,11.22